createdAt,value
2019-02-06T21:23:52.870Z,8.54
2019-02-06T21:26:25.649Z,8.54
2019-02-06T21:28:56.110Z,8.51
2019-02-06T21:31:28.353Z,8.50
2019-02-06T21:33:59.871Z,8.49
2019-02-06T21:36:36.117Z,8.48
2019-02-06T21:39:09.476Z,8.49
2019-02-06T21:41:40.977Z,8.48
2019-02-06T21:44:11.515Z,8.46
2019-02-06T21:46:42.189Z,8.44
2019-02-06T21:49:12.375Z,8.45
2019-02-06T21:51:44.038Z,8.45
2019-02-06T21:54:14.209Z,8.47
2019-02-06T21:56:45.215Z,8.47
2019-02-06T21:59:14.480Z,8.45
2019-02-06T22:01:46.269Z,8.42
2019-02-06T22:04:16.357Z,8.39
2019-02-06T22:06:46.351Z,8.38
2019-02-06T22:09:21.873Z,8.37
2019-02-06T22:11:52.040Z,8.37
2019-02-06T22:14:21.768Z,8.38
2019-02-06T22:16:53.966Z,8.41
2019-02-06T22:19:28.361Z,8.44
2019-02-06T22:21:58.374Z,8.42
2019-02-06T22:24:34.199Z,8.43
2019-02-06T22:27:05.987Z,8.49
2019-02-06T22:29:38.255Z,8.54
2019-02-06T22:32:12.963Z,8.58
2019-02-06T22:34:46.118Z,8.60
2019-02-06T22:37:15.515Z,8.58
2019-02-06T22:39:48.885Z,8.55
2019-02-06T22:42:21.818Z,8.52
2019-02-06T22:44:52.917Z,8.52
2019-02-06T22:47:22.796Z,8.52
2019-02-06T22:49:57.604Z,8.50
2019-02-06T22:52:28.625Z,8.52
2019-02-06T22:55:01.495Z,8.52
2019-02-06T22:57:33.312Z,8.51
2019-02-06T23:00:04.407Z,8.48
2019-02-06T23:02:36.882Z,8.47
2019-02-06T23:05:12.403Z,8.47
2019-02-06T23:07:43.944Z,8.48
2019-02-06T23:10:17.568Z,8.50
2019-02-06T23:12:47.770Z,8.51
2019-02-06T23:15:19.408Z,8.53
2019-02-06T23:17:49.901Z,8.51
2019-02-06T23:20:21.164Z,8.49
2019-02-06T23:22:54.729Z,8.48
2019-02-06T23:25:26.998Z,8.45
2019-02-06T23:27:59.310Z,8.43
2019-02-06T23:30:32.954Z,8.41
2019-02-06T23:33:02.960Z,8.44
2019-02-06T23:35:34.679Z,8.46
2019-02-06T23:38:08.089Z,8.49
2019-02-06T23:40:42.788Z,8.51
2019-02-06T23:43:11.907Z,8.54
2019-02-06T23:45:47.397Z,8.59
2019-02-06T23:48:18.237Z,8.64
2019-02-06T23:50:53.074Z,8.64
2019-02-06T23:53:23.517Z,8.64
2019-02-06T23:55:53.817Z,8.63
2019-02-06T23:58:31.370Z,8.61
